Stovall, North Carolina
Current Conditions -  °F | °C
As of 12:55 PM on Monday 24 Nov 2014 (Local Time) from KHNZ Reporting Station
Scattered Clouds Scattered Clouds  
Wind Chill: 70°   Ceiling: Unl
Heat Index: 70°   Visibility: 10mi
Dew Point: 55°   Wind: 17mph
Humidity: 60%   Direction: 210°SSW
Pressure: 29.76"   Gusts: 24mph
Location:  36.45°N, 78.57°W
Report Text: KHNZ 241755Z AUTO 21015G21KT 10SM SCT031 21/13 A2976 RMK AO2 60004 T02110130 10216 20155
Loading
Personal Weather Stations






























Interactive Weather Map New forecast layout! Learn more

10-Day Weather Forecast

Advertisements
Track Severe Weather on mobile